N808EH -KPNE
Flight info
| Callsign | N808EH |
|---|---|
| Flight time | N/A |
| Altitude | VFR/065 |
| Route | |
| Aircraft | P28A/L-VGD/C |
Departure
| Time | N/A |
|---|---|
| Airport | - |
Arrival
| Time | 2026-05-09 03:10 |
|---|---|
| Airport | Northeast Philadelphia Airport (KPNE) |
| Time | Latitude | Longitude | Altitude | Speed | Heading |
|---|---|---|---|---|---|
| 2026-05-09 01:20 | 41.16719 | -73.12651 | 11 ft | 0 kts | 224° |
| 2026-05-09 01:21 | 41.16712 | -73.12658 | 12 ft | 3 kts | 210° |
| 2026-05-09 01:22 | 41.16688 | -73.12680 | 12 ft | 6 kts | 209° |
| 2026-05-09 01:22 | 41.16637 | -73.12670 | 13 ft | 10 kts | 142° |
| 2026-05-09 01:22 | 41.16612 | -73.12569 | 12 ft | 13 kts | 98° |
| 2026-05-09 01:22 | 41.16599 | -73.12448 | 16 ft | 12 kts | 98° |
| 2026-05-09 01:23 | 41.16588 | -73.12341 | 19 ft | 11 kts | 98° |
| 2026-05-09 01:23 | 41.16590 | -73.12231 | 19 ft | 11 kts | 58° |
| 2026-05-09 01:23 | 41.16633 | -73.12175 | 17 ft | 10 kts | 43° |
| 2026-05-09 01:23 | 41.16654 | -73.12180 | 17 ft | 1 kts | 242° |
| 2026-05-09 01:24 | 41.16654 | -73.12181 | 17 ft | 0 kts | 232° |
| 2026-05-09 01:31 | 41.16639 | -73.12188 | 18 ft | 4 kts | 184° |
| 2026-05-09 01:32 | 41.16603 | -73.12214 | 18 ft | 8 kts | 225° |
| 2026-05-09 01:32 | 41.16554 | -73.12275 | 19 ft | 10 kts | 225° |
| 2026-05-09 01:32 | 41.16505 | -73.12331 | 19 ft | 10 kts | 249° |
| 2026-05-09 01:32 | 41.16505 | -73.12345 | 19 ft | 0 kts | 278° |
| 2026-05-09 01:33 | 41.16521 | -73.12497 | 20 ft | 44 kts | 278° |
| 2026-05-09 01:33 | 41.16581 | -73.13109 | 73 ft | 80 kts | 275° |
| 2026-05-09 01:33 | 41.16590 | -73.13865 | 301 ft | 84 kts | 262° |
| 2026-05-09 01:33 | 41.16427 | -73.14613 | 527 ft | 87 kts | 248° |
| 2026-05-09 01:34 | 41.16129 | -73.15316 | 748 ft | 88 kts | 237° |
| 2026-05-09 01:34 | 41.15786 | -73.15984 | 985 ft | 86 kts | 238° |
| 2026-05-09 01:34 | 41.15444 | -73.16613 | 1224 ft | 85 kts | 234° |
| 2026-05-09 01:34 | 41.15046 | -73.17213 | 1429 ft | 87 kts | 231° |
| 2026-05-09 01:35 | 41.14624 | -73.17774 | 1654 ft | 87 kts | 227° |
| 2026-05-09 01:35 | 41.14170 | -73.18300 | 1872 ft | 87 kts | 224° |
| 2026-05-09 01:35 | 41.13693 | -73.18794 | 2087 ft | 87 kts | 221° |
| 2026-05-09 01:35 | 41.13216 | -73.19277 | 2298 ft | 87 kts | 221° |
| 2026-05-09 01:36 | 41.12733 | -73.19761 | 2505 ft | 86 kts | 223° |
| 2026-05-09 01:36 | 41.12263 | -73.20249 | 2707 ft | 86 kts | 229° |
| 2026-05-09 01:36 | 41.11843 | -73.20803 | 2909 ft | 84 kts | 238° |
| 2026-05-09 01:36 | 41.11504 | -73.21425 | 3110 ft | 83 kts | 243° |
| 2026-05-09 01:37 | 41.11194 | -73.22065 | 3308 ft | 82 kts | 245° |
| 2026-05-09 01:37 | 41.10915 | -73.22716 | 3501 ft | 80 kts | 247° |
| 2026-05-09 01:37 | 41.10635 | -73.23350 | 3690 ft | 79 kts | 247° |
| 2026-05-09 01:37 | 41.10350 | -73.23969 | 3870 ft | 79 kts | 244° |
| 2026-05-09 01:38 | 41.10032 | -73.24557 | 4049 ft | 78 kts | 245° |
| 2026-05-09 01:38 | 41.09741 | -73.25157 | 4225 ft | 77 kts | 243° |
| 2026-05-09 01:38 | 41.09438 | -73.25736 | 4395 ft | 77 kts | 243° |
| 2026-05-09 01:38 | 41.08846 | -73.25908 | 4481 ft | 100 kts | 183° |
| 2026-05-09 01:39 | 41.08211 | -73.25809 | 4518 ft | 92 kts | 192° |
| 2026-05-09 01:39 | 41.07537 | -73.25676 | 4455 ft | 98 kts | 187° |
| 2026-05-09 01:39 | 41.06871 | -73.25551 | 4460 ft | 97 kts | 187° |
| 2026-05-09 01:39 | 41.06198 | -73.25423 | 4451 ft | 97 kts | 188° |
| 2026-05-09 01:40 | 41.05539 | -73.25291 | 4605 ft | 93 kts | 188° |
| 2026-05-09 01:40 | 41.04900 | -73.25150 | 4754 ft | 95 kts | 187° |
| 2026-05-09 01:40 | 41.04250 | -73.25004 | 4914 ft | 95 kts | 188° |
| 2026-05-09 01:40 | 41.03600 | -73.24845 | 5062 ft | 95 kts | 188° |
| 2026-05-09 01:41 | 41.02961 | -73.24680 | 5252 ft | 90 kts | 187° |
| 2026-05-09 01:41 | 41.02335 | -73.24511 | 5380 ft | 92 kts | 188° |
| 2026-05-09 01:41 | 41.01806 | -73.24765 | 5447 ft | 79 kts | 232° |
| 2026-05-09 01:41 | 41.01352 | -73.25079 | 5655 ft | 76 kts | 225° |
| 2026-05-09 01:42 | 41.00883 | -73.25439 | 5808 ft | 74 kts | 225° |
| 2026-05-09 01:42 | 41.00427 | -73.25759 | 5933 ft | 77 kts | 226° |
| 2026-05-09 01:42 | 40.99961 | -73.26093 | 6089 ft | 75 kts | 228° |
| 2026-05-09 01:42 | 40.99482 | -73.26408 | 6197 ft | 77 kts | 227° |
| 2026-05-09 01:43 | 40.99018 | -73.26738 | 6326 ft | 76 kts | 229° |
| 2026-05-09 01:43 | 40.98502 | -73.26985 | 6447 ft | 79 kts | 220° |
| 2026-05-09 01:43 | 40.98009 | -73.27253 | 6516 ft | 70 kts | 230° |
| 2026-05-09 01:43 | 40.97593 | -73.27540 | 6484 ft | 71 kts | 223° |
| 2026-05-09 01:44 | 40.97137 | -73.27758 | 6473 ft | 69 kts | 225° |
| 2026-05-09 01:44 | 40.96683 | -73.27966 | 6466 ft | 71 kts | 222° |
| 2026-05-09 01:44 | 40.96204 | -73.28133 | 6463 ft | 70 kts | 223° |
| 2026-05-09 01:44 | 40.95754 | -73.28350 | 6461 ft | 69 kts | 226° |
| 2026-05-09 01:45 | 40.95291 | -73.28544 | 6473 ft | 71 kts | 220° |
| 2026-05-09 01:45 | 40.94817 | -73.28718 | 6474 ft | 70 kts | 223° |
| 2026-05-09 01:45 | 40.94346 | -73.28896 | 6482 ft | 71 kts | 221° |
| 2026-05-09 01:45 | 40.93864 | -73.29051 | 6484 ft | 72 kts | 219° |
| 2026-05-09 01:46 | 40.93372 | -73.29190 | 6494 ft | 72 kts | 219° |
| 2026-05-09 01:46 | 40.92901 | -73.29363 | 6501 ft | 69 kts | 223° |
| 2026-05-09 01:46 | 40.92603 | -73.29494 | 6504 ft | 68 kts | 224° |
| 2026-05-09 01:46 | 40.92006 | -73.29762 | 6490 ft | 68 kts | 224° |
| 2026-05-09 01:47 | 40.91536 | -73.29938 | 6481 ft | 72 kts | 220° |
| 2026-05-09 01:47 | 40.91082 | -73.30140 | 6475 ft | 69 kts | 222° |
| 2026-05-09 01:47 | 40.90615 | -73.30329 | 6464 ft | 69 kts | 224° |
| 2026-05-09 01:47 | 40.90289 | -73.30684 | 6391 ft | 58 kts | 252° |
| 2026-05-09 01:48 | 40.90163 | -73.31181 | 6274 ft | 56 kts | 268° |
| 2026-05-09 01:48 | 40.90154 | -73.31535 | 6167 ft | 58 kts | 274° |
| 2026-05-09 01:48 | 40.90197 | -73.32063 | 5984 ft | 59 kts | 278° |
| 2026-05-09 01:48 | 40.90288 | -73.32602 | 5789 ft | 63 kts | 282° |
| 2026-05-09 01:49 | 40.90377 | -73.33158 | 5619 ft | 62 kts | 280° |
| 2026-05-09 01:49 | 40.90493 | -73.33716 | 5432 ft | 64 kts | 283° |
| 2026-05-09 01:49 | 40.90620 | -73.34283 | 5240 ft | 66 kts | 283° |
| 2026-05-09 01:49 | 40.90770 | -73.34871 | 5044 ft | 67 kts | 285° |
| 2026-05-09 01:50 | 40.90954 | -73.35452 | 4831 ft | 70 kts | 290° |
| 2026-05-09 01:50 | 40.91167 | -73.36040 | 4581 ft | 72 kts | 292° |
| 2026-05-09 01:50 | 40.91409 | -73.36629 | 4272 ft | 74 kts | 295° |
| 2026-05-09 01:50 | 40.91590 | -73.37252 | 3995 ft | 71 kts | 284° |
| 2026-05-09 01:51 | 40.91746 | -73.37869 | 3738 ft | 71 kts | 288° |
| 2026-05-09 01:51 | 40.91876 | -73.38498 | 3475 ft | 71 kts | 285° |
| 2026-05-09 01:51 | 40.92048 | -73.39126 | 3202 ft | 74 kts | 290° |
| 2026-05-09 01:51 | 40.92166 | -73.39791 | 2913 ft | 75 kts | 273° |
| 2026-05-09 01:52 | 40.92141 | -73.40473 | 2654 ft | 76 kts | 269° |
| 2026-05-09 01:52 | 40.92120 | -73.41179 | 2389 ft | 78 kts | 270° |
| 2026-05-09 01:52 | 40.92096 | -73.41894 | 2136 ft | 78 kts | 272° |
| 2026-05-09 01:52 | 40.92105 | -73.42623 | 1881 ft | 79 kts | 275° |
| 2026-05-09 01:53 | 40.92141 | -73.43357 | 1632 ft | 80 kts | 276° |
| 2026-05-09 01:53 | 40.92181 | -73.44092 | 1409 ft | 82 kts | 277° |
| 2026-05-09 01:53 | 40.92229 | -73.44848 | 1387 ft | 83 kts | 277° |
| 2026-05-09 01:53 | 40.92287 | -73.45606 | 1416 ft | 81 kts | 278° |
| 2026-05-09 01:54 | 40.92325 | -73.46351 | 1432 ft | 80 kts | 277° |
| 2026-05-09 01:54 | 40.92378 | -73.47078 | 1462 ft | 80 kts | 278° |
| 2026-05-09 01:54 | 40.92439 | -73.47849 | 1470 ft | 87 kts | 279° |
| 2026-05-09 01:54 | 40.92498 | -73.48662 | 1493 ft | 89 kts | 278° |
| 2026-05-09 01:55 | 40.92551 | -73.49482 | 1523 ft | 91 kts | 279° |
| 2026-05-09 01:55 | 40.92610 | -73.50330 | 1537 ft | 92 kts | 277° |
| 2026-05-09 01:55 | 40.92672 | -73.51173 | 1497 ft | 93 kts | 279° |
| 2026-05-09 01:55 | 40.92704 | -73.51558 | 1466 ft | 94 kts | 280° |
| 2026-05-09 01:56 | 40.92810 | -73.52382 | 1445 ft | 92 kts | 285° |
| 2026-05-09 01:56 | 40.92962 | -73.53208 | 1403 ft | 92 kts | 287° |
| 2026-05-09 01:56 | 40.93099 | -73.54042 | 1363 ft | 93 kts | 279° |
| 2026-05-09 01:57 | 40.93200 | -73.54884 | 1365 ft | 93 kts | 279° |
| 2026-05-09 01:57 | 40.93265 | -73.55730 | 1403 ft | 92 kts | 272° |
| 2026-05-09 01:57 | 40.93287 | -73.56578 | 1441 ft | 92 kts | 272° |
| 2026-05-09 01:57 | 40.93298 | -73.57425 | 1478 ft | 93 kts | 272° |
| 2026-05-09 01:58 | 40.93291 | -73.58278 | 1520 ft | 92 kts | 270° |
| 2026-05-09 01:58 | 40.93283 | -73.59128 | 1560 ft | 92 kts | 271° |
| 2026-05-09 01:58 | 40.93268 | -73.59997 | 1556 ft | 96 kts | 270° |
| 2026-05-09 01:58 | 40.93278 | -73.60885 | 1548 ft | 97 kts | 273° |
| 2026-05-09 01:59 | 40.93293 | -73.61771 | 1568 ft | 96 kts | 271° |
| 2026-05-09 01:59 | 40.93311 | -73.62661 | 1567 ft | 97 kts | 273° |
| 2026-05-09 01:59 | 40.93341 | -73.63552 | 1564 ft | 98 kts | 272° |
| 2026-05-09 01:59 | 40.93348 | -73.64079 | 1546 ft | 99 kts | 271° |
| 2026-05-09 02:00 | 40.93352 | -73.64436 | 1543 ft | 99 kts | 272° |
| 2026-05-09 02:00 | 40.93352 | -73.65343 | 1549 ft | 98 kts | 270° |
| 2026-05-09 02:00 | 40.93370 | -73.66248 | 1527 ft | 99 kts | 274° |
| 2026-05-09 02:00 | 40.93498 | -73.67144 | 1536 ft | 98 kts | 281° |
| 2026-05-09 02:01 | 40.93620 | -73.68035 | 1524 ft | 99 kts | 278° |
| 2026-05-09 02:01 | 40.93715 | -73.68921 | 1529 ft | 98 kts | 277° |
| 2026-05-09 02:01 | 40.93798 | -73.69820 | 1535 ft | 99 kts | 276° |
| 2026-05-09 02:01 | 40.93876 | -73.70734 | 1539 ft | 98 kts | 275° |
| 2026-05-09 02:02 | 40.93932 | -73.71635 | 1529 ft | 99 kts | 275° |
| 2026-05-09 02:02 | 40.93988 | -73.72542 | 1526 ft | 99 kts | 274° |
| 2026-05-09 02:02 | 40.94035 | -73.73443 | 1524 ft | 98 kts | 273° |
| 2026-05-09 02:02 | 40.94059 | -73.74337 | 1524 ft | 99 kts | 270° |
| 2026-05-09 02:03 | 40.94067 | -73.75256 | 1523 ft | 103 kts | 271° |
| 2026-05-09 02:03 | 40.94093 | -73.76242 | 1563 ft | 110 kts | 272° |
| 2026-05-09 02:03 | 40.94150 | -73.77232 | 1563 ft | 108 kts | 275° |
| 2026-05-09 02:03 | 40.94235 | -73.78231 | 1626 ft | 110 kts | 277° |
| 2026-05-09 02:04 | 40.94335 | -73.79244 | 1705 ft | 111 kts | 277° |
| 2026-05-09 02:04 | 40.94445 | -73.80255 | 1789 ft | 111 kts | 278° |
| 2026-05-09 02:04 | 40.94567 | -73.81276 | 1836 ft | 113 kts | 279° |
| 2026-05-09 02:04 | 40.94734 | -73.82296 | 1897 ft | 114 kts | 281° |
| 2026-05-09 02:05 | 40.94913 | -73.83317 | 1937 ft | 115 kts | 284° |
| 2026-05-09 02:05 | 40.95147 | -73.84324 | 2005 ft | 113 kts | 286° |
| 2026-05-09 02:05 | 40.95390 | -73.85295 | 2045 ft | 106 kts | 288° |
| 2026-05-09 02:05 | 40.95610 | -73.86171 | 2014 ft | 96 kts | 286° |
| 2026-05-09 02:06 | 40.95816 | -73.87006 | 1970 ft | 94 kts | 287° |
| 2026-05-09 02:06 | 40.96026 | -73.87831 | 1894 ft | 95 kts | 287° |
| 2026-05-09 02:06 | 40.96238 | -73.88656 | 1860 ft | 94 kts | 287° |
| 2026-05-09 02:07 | 40.96442 | -73.90251 | 1985 ft | 84 kts | 251° |
| 2026-05-09 02:07 | 40.96067 | -73.90840 | 2014 ft | 87 kts | 220° |
| 2026-05-09 02:07 | 40.95511 | -73.91196 | 2016 ft | 91 kts | 202° |
| 2026-05-09 02:07 | 40.94891 | -73.91423 | 2027 ft | 93 kts | 198° |
| 2026-05-09 02:08 | 40.94261 | -73.91615 | 2058 ft | 93 kts | 197° |
| 2026-05-09 02:08 | 40.93630 | -73.91797 | 2066 ft | 93 kts | 197° |
| 2026-05-09 02:08 | 40.93012 | -73.92001 | 2083 ft | 92 kts | 199° |
| 2026-05-09 02:08 | 40.92390 | -73.92232 | 2086 ft | 94 kts | 200° |
| 2026-05-09 02:09 | 40.91774 | -73.92490 | 2102 ft | 93 kts | 202° |
| 2026-05-09 02:09 | 40.91161 | -73.92762 | 2107 ft | 93 kts | 202° |
| 2026-05-09 02:09 | 40.90543 | -73.93039 | 2094 ft | 95 kts | 202° |
| 2026-05-09 02:09 | 40.89911 | -73.93335 | 2061 ft | 96 kts | 202° |
| 2026-05-09 02:10 | 40.89285 | -73.93635 | 2053 ft | 96 kts | 204° |
| 2026-05-09 02:10 | 40.88656 | -73.93931 | 2041 ft | 95 kts | 203° |
| 2026-05-09 02:10 | 40.88033 | -73.94234 | 2028 ft | 96 kts | 205° |
| 2026-05-09 02:10 | 40.87407 | -73.94546 | 2006 ft | 96 kts | 204° |
| 2026-05-09 02:11 | 40.86782 | -73.94863 | 1999 ft | 96 kts | 204° |
| 2026-05-09 02:11 | 40.86162 | -73.95192 | 1986 ft | 96 kts | 205° |
| 2026-05-09 02:11 | 40.85539 | -73.95503 | 1979 ft | 96 kts | 201° |
| 2026-05-09 02:11 | 40.84912 | -73.95779 | 1979 ft | 95 kts | 205° |
| 2026-05-09 02:12 | 40.84305 | -73.96106 | 1978 ft | 94 kts | 208° |
| 2026-05-09 02:12 | 40.83697 | -73.96462 | 1978 ft | 97 kts | 208° |
| 2026-05-09 02:12 | 40.83081 | -73.96837 | 1982 ft | 97 kts | 209° |
| 2026-05-09 02:12 | 40.82476 | -73.97225 | 1993 ft | 97 kts | 210° |
| 2026-05-09 02:13 | 40.81875 | -73.97620 | 1996 ft | 97 kts | 211° |
| 2026-05-09 02:13 | 40.81276 | -73.98027 | 2006 ft | 96 kts | 211° |
| 2026-05-09 02:13 | 40.80680 | -73.98439 | 1996 ft | 98 kts | 212° |
| 2026-05-09 02:13 | 40.80086 | -73.98853 | 2018 ft | 96 kts | 211° |
| 2026-05-09 02:14 | 40.79503 | -73.99271 | 2011 ft | 97 kts | 213° |
| 2026-05-09 02:14 | 40.78919 | -73.99706 | 2023 ft | 96 kts | 213° |
| 2026-05-09 02:14 | 40.78335 | -74.00153 | 2013 ft | 97 kts | 214° |
| 2026-05-09 02:14 | 40.77755 | -74.00595 | 2061 ft | 96 kts | 216° |
| 2026-05-09 02:15 | 40.77140 | -74.00967 | 2056 ft | 99 kts | 207° |
| 2026-05-09 02:15 | 40.76494 | -74.01270 | 2059 ft | 98 kts | 207° |
| 2026-05-09 02:15 | 40.75863 | -74.01617 | 2060 ft | 98 kts | 208° |
| 2026-05-09 02:15 | 40.75207 | -74.01881 | 2058 ft | 100 kts | 199° |
| 2026-05-09 02:16 | 40.74521 | -74.02067 | 2049 ft | 101 kts | 197° |
| 2026-05-09 02:16 | 40.73823 | -74.02227 | 2024 ft | 103 kts | 196° |
| 2026-05-09 02:16 | 40.73116 | -74.02361 | 2015 ft | 102 kts | 194° |
| 2026-05-09 02:16 | 40.72413 | -74.02517 | 1983 ft | 103 kts | 199° |
| 2026-05-09 02:17 | 40.71717 | -74.02741 | 1968 ft | 101 kts | 200° |
| 2026-05-09 02:17 | 40.71047 | -74.02991 | 1962 ft | 100 kts | 203° |
| 2026-05-09 02:17 | 40.70390 | -74.03283 | 1974 ft | 98 kts | 205° |
| 2026-05-09 02:17 | 40.69776 | -74.03669 | 1932 ft | 98 kts | 222° |
| 2026-05-09 02:18 | 40.69298 | -74.04262 | 2004 ft | 91 kts | 226° |
| 2026-05-09 02:18 | 40.68779 | -74.04779 | 1998 ft | 94 kts | 219° |
| 2026-05-09 02:18 | 40.68198 | -74.05187 | 2013 ft | 96 kts | 209° |
| 2026-05-09 02:18 | 40.67543 | -74.05407 | 2028 ft | 100 kts | 191° |
| 2026-05-09 02:19 | 40.66848 | -74.05425 | 2048 ft | 100 kts | 186° |
| 2026-05-09 02:19 | 40.66150 | -74.05412 | 2059 ft | 101 kts | 183° |
| 2026-05-09 02:19 | 40.65443 | -74.05509 | 1999 ft | 102 kts | 201° |
| 2026-05-09 02:19 | 40.64774 | -74.05728 | 2042 ft | 100 kts | 200° |
| 2026-05-09 02:20 | 40.64084 | -74.05919 | 2043 ft | 100 kts | 199° |
| 2026-05-09 02:20 | 40.63391 | -74.06062 | 2045 ft | 102 kts | 196° |
| 2026-05-09 02:20 | 40.62672 | -74.06137 | 2009 ft | 108 kts | 185° |
| 2026-05-09 02:20 | 40.61936 | -74.05971 | 2034 ft | 108 kts | 174° |
| 2026-05-09 02:21 | 40.61209 | -74.05701 | 2029 ft | 109 kts | 171° |
| 2026-05-09 02:21 | 40.60478 | -74.05450 | 2047 ft | 108 kts | 172° |
| 2026-05-09 02:21 | 40.59757 | -74.05200 | 2205 ft | 108 kts | 171° |
| 2026-05-09 02:21 | 40.59027 | -74.04924 | 2356 ft | 109 kts | 173° |
| 2026-05-09 02:22 | 40.58303 | -74.04672 | 2543 ft | 106 kts | 174° |
| 2026-05-09 02:22 | 40.57597 | -74.04435 | 2751 ft | 103 kts | 175° |
| 2026-05-09 02:22 | 40.56900 | -74.04177 | 2926 ft | 105 kts | 174° |
| 2026-05-09 02:22 | 40.56194 | -74.03931 | 3025 ft | 103 kts | 176° |
| 2026-05-09 02:23 | 40.55512 | -74.03701 | 3032 ft | 101 kts | 177° |
| 2026-05-09 02:23 | 40.54822 | -74.03462 | 2991 ft | 104 kts | 174° |
| 2026-05-09 02:23 | 40.54133 | -74.03213 | 2967 ft | 100 kts | 184° |
| 2026-05-09 02:23 | 40.53410 | -74.03055 | 2880 ft | 105 kts | 179° |
| 2026-05-09 02:24 | 40.52724 | -74.02916 | 2914 ft | 99 kts | 181° |
| 2026-05-09 02:24 | 40.52031 | -74.02709 | 2874 ft | 102 kts | 175° |
| 2026-05-09 02:24 | 40.51352 | -74.02462 | 2884 ft | 102 kts | 175° |
| 2026-05-09 02:24 | 40.50663 | -74.02196 | 2875 ft | 104 kts | 173° |
| 2026-05-09 02:25 | 40.49977 | -74.01918 | 2899 ft | 102 kts | 173° |
| 2026-05-09 02:25 | 40.49293 | -74.01640 | 2900 ft | 103 kts | 174° |
| 2026-05-09 02:25 | 40.48616 | -74.01364 | 2923 ft | 102 kts | 173° |
| 2026-05-09 02:25 | 40.47935 | -74.01089 | 2921 ft | 103 kts | 173° |
| 2026-05-09 02:26 | 40.47259 | -74.00813 | 2963 ft | 99 kts | 173° |
| 2026-05-09 02:26 | 40.46607 | -74.00539 | 2952 ft | 103 kts | 173° |
| 2026-05-09 02:26 | 40.45923 | -74.00282 | 2992 ft | 97 kts | 173° |
| 2026-05-09 02:26 | 40.45266 | -74.00060 | 3002 ft | 98 kts | 173° |
| 2026-05-09 02:27 | 40.44609 | -73.99832 | 3025 ft | 98 kts | 173° |
| 2026-05-09 02:27 | 40.43939 | -73.99613 | 3008 ft | 101 kts | 173° |
| 2026-05-09 02:27 | 40.43239 | -73.99396 | 3020 ft | 101 kts | 174° |
| 2026-05-09 02:27 | 40.42557 | -73.99171 | 3013 ft | 104 kts | 174° |
| 2026-05-09 02:28 | 40.41850 | -73.98956 | 3019 ft | 104 kts | 174° |
| 2026-05-09 02:28 | 40.41136 | -73.98735 | 2995 ft | 106 kts | 174° |
| 2026-05-09 02:28 | 40.40425 | -73.98509 | 3008 ft | 105 kts | 173° |
| 2026-05-09 02:28 | 40.39709 | -73.98287 | 2999 ft | 105 kts | 173° |
| 2026-05-09 02:29 | 40.39053 | -73.98479 | 2900 ft | 96 kts | 237° |
| 2026-05-09 02:29 | 40.39045 | -73.99249 | 2918 ft | 88 kts | 282° |
| 2026-05-09 02:29 | 40.39179 | -74.00012 | 2961 ft | 84 kts | 284° |
| 2026-05-09 02:29 | 40.39322 | -74.00745 | 3007 ft | 76 kts | 284° |
| 2026-05-09 02:30 | 40.39468 | -74.01417 | 2976 ft | 81 kts | 284° |
| 2026-05-09 02:30 | 40.39606 | -74.02132 | 2989 ft | 80 kts | 284° |
| 2026-05-09 02:30 | 40.39791 | -74.02835 | 2939 ft | 83 kts | 284° |
| 2026-05-09 02:30 | 40.39841 | -74.03576 | 2943 ft | 80 kts | 275° |
| 2026-05-09 02:31 | 40.39866 | -74.04312 | 2911 ft | 81 kts | 274° |
| 2026-05-09 02:31 | 40.39891 | -74.05044 | 2906 ft | 80 kts | 275° |
| 2026-05-09 02:31 | 40.39909 | -74.05782 | 2897 ft | 81 kts | 274° |
| 2026-05-09 02:31 | 40.39930 | -74.06510 | 2923 ft | 79 kts | 274° |
| 2026-05-09 02:32 | 40.39955 | -74.07226 | 2923 ft | 79 kts | 274° |
| 2026-05-09 02:32 | 40.39983 | -74.07944 | 2916 ft | 80 kts | 274° |
| 2026-05-09 02:32 | 40.40008 | -74.08643 | 3169 ft | 73 kts | 274° |
| 2026-05-09 02:32 | 40.40036 | -74.09292 | 3371 ft | 73 kts | 274° |
| 2026-05-09 02:33 | 40.40062 | -74.09948 | 3574 ft | 70 kts | 275° |
| 2026-05-09 02:33 | 40.40109 | -74.10569 | 3761 ft | 69 kts | 274° |
| 2026-05-09 02:33 | 40.40174 | -74.11202 | 3937 ft | 70 kts | 276° |
| 2026-05-09 02:33 | 40.40224 | -74.11841 | 4092 ft | 72 kts | 274° |
| 2026-05-09 02:34 | 40.40294 | -74.12468 | 4307 ft | 67 kts | 274° |
| 2026-05-09 02:34 | 40.40360 | -74.13064 | 4510 ft | 65 kts | 274° |
| 2026-05-09 02:34 | 40.40425 | -74.13643 | 4703 ft | 65 kts | 275° |
| 2026-05-09 02:34 | 40.40492 | -74.14221 | 4903 ft | 64 kts | 274° |
| 2026-05-09 02:35 | 40.40569 | -74.14795 | 5064 ft | 64 kts | 274° |
| 2026-05-09 02:35 | 40.40653 | -74.15389 | 5188 ft | 68 kts | 275° |
| 2026-05-09 02:35 | 40.40736 | -74.15999 | 5321 ft | 68 kts | 275° |
| 2026-05-09 02:35 | 40.40787 | -74.16603 | 5457 ft | 68 kts | 258° |
| 2026-05-09 02:36 | 40.40615 | -74.17149 | 5636 ft | 64 kts | 256° |
| 2026-05-09 02:36 | 40.40476 | -74.17708 | 5802 ft | 63 kts | 254° |
| 2026-05-09 02:36 | 40.40333 | -74.18238 | 5982 ft | 61 kts | 255° |
| 2026-05-09 02:36 | 40.40184 | -74.18802 | 6025 ft | 70 kts | 256° |
| 2026-05-09 02:37 | 40.40076 | -74.19213 | 6091 ft | 71 kts | 255° |
| 2026-05-09 02:37 | 40.39914 | -74.19811 | 6235 ft | 68 kts | 255° |
| 2026-05-09 02:37 | 40.39755 | -74.20406 | 6330 ft | 70 kts | 255° |
| 2026-05-09 02:37 | 40.39594 | -74.20997 | 6453 ft | 68 kts | 255° |
| 2026-05-09 02:38 | 40.39432 | -74.21590 | 6538 ft | 70 kts | 255° |
| 2026-05-09 02:38 | 40.39268 | -74.22190 | 6624 ft | 71 kts | 255° |
| 2026-05-09 02:38 | 40.39099 | -74.22809 | 6697 ft | 72 kts | 256° |
| 2026-05-09 02:38 | 40.38931 | -74.23434 | 6713 ft | 77 kts | 255° |
| 2026-05-09 02:39 | 40.38751 | -74.24130 | 6667 ft | 83 kts | 256° |
| 2026-05-09 02:39 | 40.38565 | -74.24848 | 6657 ft | 84 kts | 256° |
| 2026-05-09 02:39 | 40.38380 | -74.25572 | 6656 ft | 84 kts | 256° |
| 2026-05-09 02:39 | 40.38191 | -74.26307 | 6637 ft | 86 kts | 256° |
| 2026-05-09 02:40 | 40.37997 | -74.27076 | 6546 ft | 91 kts | 256° |
| 2026-05-09 02:40 | 40.37801 | -74.27864 | 6487 ft | 90 kts | 256° |
| 2026-05-09 02:40 | 40.37608 | -74.28626 | 6482 ft | 87 kts | 256° |
| 2026-05-09 02:40 | 40.37419 | -74.29379 | 6476 ft | 86 kts | 256° |
| 2026-05-09 02:41 | 40.37233 | -74.30118 | 6486 ft | 85 kts | 256° |
| 2026-05-09 02:41 | 40.37046 | -74.30858 | 6465 ft | 85 kts | 256° |
| 2026-05-09 02:41 | 40.36861 | -74.31596 | 6466 ft | 84 kts | 256° |
| 2026-05-09 02:41 | 40.36679 | -74.32320 | 6452 ft | 85 kts | 256° |
| 2026-05-09 02:42 | 40.36493 | -74.33066 | 6467 ft | 85 kts | 256° |
| 2026-05-09 02:42 | 40.36312 | -74.33786 | 6478 ft | 84 kts | 256° |
| 2026-05-09 02:42 | 40.36127 | -74.34525 | 6485 ft | 84 kts | 256° |
| 2026-05-09 02:42 | 40.35947 | -74.35234 | 6493 ft | 83 kts | 256° |
| 2026-05-09 02:43 | 40.35765 | -74.35958 | 6485 ft | 84 kts | 256° |
| 2026-05-09 02:43 | 40.35578 | -74.36673 | 6507 ft | 83 kts | 256° |
| 2026-05-09 02:43 | 40.35392 | -74.37393 | 6497 ft | 84 kts | 256° |
| 2026-05-09 02:43 | 40.35208 | -74.38115 | 6503 ft | 83 kts | 256° |
| 2026-05-09 02:44 | 40.35025 | -74.38834 | 6502 ft | 83 kts | 256° |
| 2026-05-09 02:44 | 40.34842 | -74.39551 | 6485 ft | 83 kts | 256° |
| 2026-05-09 02:44 | 40.34659 | -74.40273 | 6468 ft | 84 kts | 256° |
| 2026-05-09 02:44 | 40.34473 | -74.40996 | 6463 ft | 84 kts | 256° |
| 2026-05-09 02:45 | 40.34285 | -74.41719 | 6464 ft | 84 kts | 256° |
| 2026-05-09 02:45 | 40.34099 | -74.42439 | 6466 ft | 83 kts | 256° |
| 2026-05-09 02:45 | 40.33914 | -74.43148 | 6477 ft | 82 kts | 256° |
| 2026-05-09 02:45 | 40.33728 | -74.43860 | 6456 ft | 83 kts | 256° |
| 2026-05-09 02:46 | 40.33542 | -74.44575 | 6475 ft | 83 kts | 256° |
| 2026-05-09 02:46 | 40.33358 | -74.45286 | 6476 ft | 82 kts | 256° |
| 2026-05-09 02:46 | 40.33176 | -74.46001 | 6479 ft | 83 kts | 256° |
| 2026-05-09 02:46 | 40.33000 | -74.46714 | 6491 ft | 82 kts | 257° |
| 2026-05-09 02:47 | 40.32822 | -74.47433 | 6505 ft | 83 kts | 257° |
| 2026-05-09 02:47 | 40.32649 | -74.48122 | 6505 ft | 77 kts | 257° |
| 2026-05-09 02:47 | 40.32480 | -74.48770 | 6462 ft | 74 kts | 257° |
| 2026-05-09 02:47 | 40.32316 | -74.49398 | 6421 ft | 72 kts | 257° |
| 2026-05-09 02:48 | 40.32156 | -74.50019 | 6361 ft | 72 kts | 257° |
| 2026-05-09 02:48 | 40.31997 | -74.50631 | 6326 ft | 71 kts | 257° |
| 2026-05-09 02:48 | 40.31837 | -74.51243 | 6284 ft | 71 kts | 257° |
| 2026-05-09 02:48 | 40.31677 | -74.51844 | 6281 ft | 69 kts | 257° |
| 2026-05-09 02:49 | 40.31523 | -74.52431 | 6284 ft | 66 kts | 257° |
| 2026-05-09 02:49 | 40.31372 | -74.53002 | 6261 ft | 67 kts | 257° |
| 2026-05-09 02:49 | 40.31226 | -74.53577 | 6265 ft | 65 kts | 257° |
| 2026-05-09 02:49 | 40.31085 | -74.54137 | 6277 ft | 63 kts | 257° |
| 2026-05-09 02:50 | 40.30948 | -74.54661 | 6308 ft | 62 kts | 257° |
| 2026-05-09 02:50 | 40.30813 | -74.55178 | 6363 ft | 58 kts | 256° |
| 2026-05-09 02:50 | 40.30683 | -74.55663 | 6421 ft | 56 kts | 257° |
| 2026-05-09 02:50 | 40.30556 | -74.56145 | 6422 ft | 60 kts | 253° |
| 2026-05-09 02:51 | 40.30455 | -74.56717 | 6424 ft | 62 kts | 257° |
| 2026-05-09 02:51 | 40.30352 | -74.57264 | 6468 ft | 62 kts | 257° |
| 2026-05-09 02:51 | 40.30251 | -74.57813 | 6504 ft | 62 kts | 257° |
| 2026-05-09 02:51 | 40.30150 | -74.58376 | 6519 ft | 64 kts | 257° |
| 2026-05-09 02:52 | 40.30053 | -74.58948 | 6537 ft | 65 kts | 259° |
| 2026-05-09 02:52 | 40.29859 | -74.59495 | 6567 ft | 66 kts | 246° |
| 2026-05-09 02:52 | 40.29595 | -74.60018 | 6580 ft | 67 kts | 245° |
| 2026-05-09 02:52 | 40.29337 | -74.60532 | 6576 ft | 71 kts | 243° |
| 2026-05-09 02:53 | 40.29065 | -74.61061 | 6580 ft | 70 kts | 243° |
| 2026-05-09 02:53 | 40.28912 | -74.61690 | 6506 ft | 73 kts | 255° |
| 2026-05-09 02:53 | 40.28739 | -74.62304 | 6517 ft | 70 kts | 251° |
| 2026-05-09 02:53 | 40.28450 | -74.62830 | 6503 ft | 73 kts | 239° |
| 2026-05-09 02:54 | 40.28156 | -74.63354 | 6520 ft | 70 kts | 241° |
| 2026-05-09 02:54 | 40.27870 | -74.63876 | 6505 ft | 72 kts | 242° |
| 2026-05-09 02:54 | 40.27582 | -74.64404 | 6514 ft | 71 kts | 242° |
| 2026-05-09 02:54 | 40.27297 | -74.64935 | 6519 ft | 71 kts | 242° |
| 2026-05-09 02:55 | 40.27015 | -74.65467 | 6525 ft | 72 kts | 243° |
| 2026-05-09 02:55 | 40.26730 | -74.66004 | 6519 ft | 72 kts | 243° |
| 2026-05-09 02:55 | 40.26446 | -74.66541 | 6519 ft | 72 kts | 243° |
| 2026-05-09 02:55 | 40.26163 | -74.67078 | 6531 ft | 71 kts | 243° |
| 2026-05-09 02:56 | 40.25881 | -74.67614 | 6529 ft | 72 kts | 243° |
| 2026-05-09 02:56 | 40.25598 | -74.68149 | 6527 ft | 72 kts | 243° |
| 2026-05-09 02:56 | 40.25314 | -74.68690 | 6537 ft | 72 kts | 243° |
| 2026-05-09 02:56 | 40.25030 | -74.69229 | 6542 ft | 72 kts | 243° |
| 2026-05-09 02:57 | 40.24747 | -74.69765 | 6541 ft | 72 kts | 243° |
| 2026-05-09 02:57 | 40.24464 | -74.70301 | 6556 ft | 71 kts | 243° |
| 2026-05-09 02:57 | 40.24183 | -74.70836 | 6548 ft | 72 kts | 243° |
| 2026-05-09 02:57 | 40.23901 | -74.71373 | 6541 ft | 72 kts | 243° |
| 2026-05-09 02:58 | 40.23618 | -74.71909 | 6556 ft | 71 kts | 243° |
| 2026-05-09 02:58 | 40.23336 | -74.72444 | 6557 ft | 71 kts | 243° |
| 2026-05-09 02:58 | 40.23054 | -74.72979 | 6551 ft | 72 kts | 243° |
| 2026-05-09 02:58 | 40.22776 | -74.73519 | 6542 ft | 71 kts | 245° |
| 2026-05-09 02:59 | 40.22711 | -74.74138 | 6553 ft | 69 kts | 262° |
| 2026-05-09 02:59 | 40.22638 | -74.74769 | 6544 ft | 70 kts | 262° |
| 2026-05-09 02:59 | 40.22570 | -74.75393 | 6546 ft | 70 kts | 262° |
| 2026-05-09 02:59 | 40.22503 | -74.76022 | 6545 ft | 69 kts | 261° |
| 2026-05-09 03:00 | 40.22385 | -74.76631 | 6522 ft | 73 kts | 258° |
| 2026-05-09 03:00 | 40.22337 | -74.77304 | 6544 ft | 66 kts | 262° |
| 2026-05-09 03:00 | 40.22274 | -74.77926 | 6410 ft | 72 kts | 263° |
| 2026-05-09 03:00 | 40.22210 | -74.78556 | 6282 ft | 70 kts | 262° |
| 2026-05-09 03:01 | 40.22142 | -74.79198 | 6119 ft | 72 kts | 262° |
| 2026-05-09 03:01 | 40.22071 | -74.79844 | 5970 ft | 72 kts | 261° |
| 2026-05-09 03:01 | 40.21999 | -74.80494 | 5809 ft | 73 kts | 261° |
| 2026-05-09 03:01 | 40.21904 | -74.81145 | 5650 ft | 74 kts | 252° |
| 2026-05-09 03:02 | 40.21577 | -74.81721 | 5263 ft | 83 kts | 232° |
| 2026-05-09 03:02 | 40.21167 | -74.82268 | 4873 ft | 84 kts | 230° |
| 2026-05-09 03:02 | 40.20711 | -74.82776 | 4433 ft | 88 kts | 226° |
| 2026-05-09 03:02 | 40.20250 | -74.83311 | 4007 ft | 88 kts | 230° |
| 2026-05-09 03:03 | 40.19849 | -74.83894 | 3647 ft | 85 kts | 235° |
| 2026-05-09 03:03 | 40.19455 | -74.84496 | 3232 ft | 89 kts | 235° |
| 2026-05-09 03:03 | 40.19054 | -74.85136 | 2826 ft | 91 kts | 234° |
| 2026-05-09 03:03 | 40.18665 | -74.85752 | 2529 ft | 85 kts | 235° |
| 2026-05-09 03:04 | 40.18263 | -74.86315 | 2264 ft | 83 kts | 231° |
| 2026-05-09 03:04 | 40.17848 | -74.86856 | 2005 ft | 85 kts | 229° |
| 2026-05-09 03:04 | 40.17449 | -74.87426 | 1782 ft | 83 kts | 236° |
| 2026-05-09 03:04 | 40.17103 | -74.88004 | 1665 ft | 80 kts | 237° |
| 2026-05-09 03:05 | 40.16766 | -74.88601 | 1592 ft | 82 kts | 237° |
| 2026-05-09 03:05 | 40.16419 | -74.89183 | 1550 ft | 80 kts | 234° |
| 2026-05-09 03:05 | 40.16054 | -74.89735 | 1522 ft | 80 kts | 233° |
| 2026-05-09 03:05 | 40.15671 | -74.90269 | 1478 ft | 81 kts | 230° |
| 2026-05-09 03:06 | 40.15279 | -74.90809 | 1408 ft | 83 kts | 235° |
| 2026-05-09 03:06 | 40.14926 | -74.91407 | 1366 ft | 83 kts | 234° |
| 2026-05-09 03:06 | 40.14553 | -74.91981 | 1328 ft | 84 kts | 231° |
| 2026-05-09 03:06 | 40.14170 | -74.92547 | 1290 ft | 81 kts | 231° |
| 2026-05-09 03:07 | 40.13798 | -74.93095 | 1205 ft | 81 kts | 231° |
| 2026-05-09 03:07 | 40.13419 | -74.93668 | 1108 ft | 86 kts | 229° |
| 2026-05-09 03:07 | 40.13025 | -74.94268 | 1015 ft | 87 kts | 228° |
| 2026-05-09 03:07 | 40.12621 | -74.94847 | 966 ft | 83 kts | 228° |
| 2026-05-09 03:08 | 40.12286 | -74.95355 | 909 ft | 67 kts | 228° |
| 2026-05-09 03:08 | 40.11973 | -74.95808 | 827 ft | 67 kts | 227° |
| 2026-05-09 03:08 | 40.11667 | -74.96262 | 800 ft | 68 kts | 224° |
| 2026-05-09 03:08 | 40.11349 | -74.96735 | 769 ft | 70 kts | 226° |
| 2026-05-09 03:09 | 40.11031 | -74.97200 | 711 ft | 68 kts | 226° |
| 2026-05-09 03:09 | 40.10706 | -74.97680 | 641 ft | 71 kts | 227° |
| 2026-05-09 03:09 | 40.10383 | -74.98155 | 545 ft | 69 kts | 226° |
| 2026-05-09 03:09 | 40.10063 | -74.98633 | 447 ft | 71 kts | 226° |
| 2026-05-09 03:10 | 40.09726 | -74.99122 | 364 ft | 73 kts | 228° |
| 2026-05-09 03:10 | 40.09393 | -74.99613 | 283 ft | 70 kts | 226° |
| 2026-05-09 03:10 | 40.09078 | -75.00078 | 180 ft | 69 kts | 227° |
| 2026-05-09 03:10 | 40.08811 | -75.00469 | 111 ft | 46 kts | 230° |
| 2026-05-09 03:11 | 40.08646 | -75.00715 | 109 ft | 27 kts | 227° |
| 2026-05-09 03:11 | 40.08532 | -75.00882 | 109 ft | 24 kts | 229° |
| 2026-05-09 03:11 | 40.08417 | -75.01051 | 113 ft | 26 kts | 228° |
| 2026-05-09 03:11 | 40.08287 | -75.01199 | 113 ft | 21 kts | 176° |
| 2026-05-09 03:12 | 40.08240 | -75.01167 | 113 ft | 0 kts | 142° |
| 2026-05-09 03:12 | 40.08233 | -75.01159 | 113 ft | 4 kts | 141° |
| 2026-05-09 03:13 | 40.08114 | -75.01031 | 113 ft | 14 kts | 143° |
| 2026-05-09 03:13 | 40.08028 | -75.00940 | 115 ft | 18 kts | 141° |
| 2026-05-09 03:13 | 40.07918 | -75.00824 | 114 ft | 21 kts | 140° |
| 2026-05-09 03:14 | 40.07812 | -75.00710 | 115 ft | 19 kts | 141° |
| 2026-05-09 03:14 | 40.07740 | -75.00690 | 105 ft | 0 kts | 232° |
| 2026-05-09 03:14 | 40.07738 | -75.00693 | 107 ft | 3 kts | 231° |
| 2026-05-09 03:14 | 40.07701 | -75.00751 | 115 ft | 14 kts | 227° |
| 2026-05-09 03:15 | 40.07631 | -75.00866 | 113 ft | 11 kts | 232° |
| 2026-05-09 03:15 | 40.07636 | -75.00949 | 113 ft | 14 kts | 323° |
| 2026-05-09 03:15 | 40.07647 | -75.00960 | 113 ft | 0 kts | 320° |